sensor_id;sensor_type;location;lat;lon;timestamp;temperature;humidity
15888;DHT22;56032;51.324;12.376;2023-03-01T00:03:41;0.50;99.90
15888;DHT22;56032;51.324;12.376;2023-03-01T00:06:30;0.40;99.90
15888;DHT22;56032;51.324;12.376;2023-03-01T00:09:30;0.40;99.90
15888;DHT22;56032;51.324;12.376;2023-03-01T00:12:46;0.40;99.90
15888;DHT22;56032;51.324;12.376;2023-03-01T00:15:18;0.40;99.90
15888;DHT22;56032;51.324;12.376;2023-03-01T00:18:30;0.40;99.90
15888;DHT22;56032;51.324;12.376;2023-03-01T00:21:17;0.40;99.90
15888;DHT22;56032;51.324;12.376;2023-03-01T00:23:57;0.40;99.90
15888;DHT22;56032;51.324;12.376;2023-03-01T00:27:02;0.40;99.90
15888;DHT22;56032;51.324;12.376;2023-03-01T00:30:14;0.40;99.90
15888;DHT22;56032;51.324;12.376;2023-03-01T00:33:38;0.50;99.90
15888;DHT22;56032;51.324;12.376;2023-03-01T00:36:28;0.40;99.90
15888;DHT22;56032;51.324;12.376;2023-03-01T00:39:01;0.40;99.90
15888;DHT22;56032;51.324;12.376;2023-03-01T00:41:39;0.40;99.90
15888;DHT22;56032;51.324;12.376;2023-03-01T00:44:16;0.40;99.90
15888;DHT22;56032;51.324;12.376;2023-03-01T00:46:57;0.40;99.90
15888;DHT22;56032;51.324;12.376;2023-03-01T00:49:29;0.40;99.90
15888;DHT22;56032;51.324;12.376;2023-03-01T00:52:22;0.30;99.90
15888;DHT22;56032;51.324;12.376;2023-03-01T00:55:03;0.30;99.90
15888;DHT22;56032;51.324;12.376;2023-03-01T00:57:53;0.30;99.90
15888;DHT22;56032;51.324;12.376;2023-03-01T01:00:28;0.40;99.90
15888;DHT22;56032;51.324;12.376;2023-03-01T01:03:13;0.40;99.90
15888;DHT22;56032;51.324;12.376;2023-03-01T01:05:45;0.40;99.90
15888;DHT22;56032;51.324;12.376;2023-03-01T01:11:06;0.40;99.90
15888;DHT22;56032;51.324;12.376;2023-03-01T01:13:47;0.40;99.90
15888;DHT22;56032;51.324;12.376;2023-03-01T01:16:20;0.30;99.90
15888;DHT22;56032;51.324;12.376;2023-03-01T01:18:57;0.30;99.90
15888;DHT22;56032;51.324;12.376;2023-03-01T01:21:45;0.30;99.90
15888;DHT22;56032;51.324;12.376;2023-03-01T01:24:24;0.30;99.90
15888;DHT22;56032;51.324;12.376;2023-03-01T01:30:02;0.20;99.90
15888;DHT22;56032;51.324;12.376;2023-03-01T01:32:42;0.20;99.90
15888;DHT22;56032;51.324;12.376;2023-03-01T01:35:23;0.20;99.90
15888;DHT22;56032;51.324;12.376;2023-03-01T01:38:05;0.20;99.90
15888;DHT22;56032;51.324;12.376;2023-03-01T01:40:43;0.20;99.90
15888;DHT22;56032;51.324;12.376;2023-03-01T01:43:19;0.20;99.90
15888;DHT22;56032;51.324;12.376;2023-03-01T01:45:57;0.20;99.90
15888;DHT22;56032;51.324;12.376;2023-03-01T01:48:37;0.20;99.90
15888;DHT22;56032;51.324;12.376;2023-03-01T01:51:18;0.10;99.90
15888;DHT22;56032;51.324;12.376;2023-03-01T01:53:58;0.10;99.90
15888;DHT22;56032;51.324;12.376;2023-03-01T01:56:31;0.10;99.90
15888;DHT22;56032;51.324;12.376;2023-03-01T01:59:05;0.10;99.90
15888;DHT22;56032;51.324;12.376;2023-03-01T02:04:36;0.10;99.90
15888;DHT22;56032;51.324;12.376;2023-03-01T02:07:21;0.10;99.90
15888;DHT22;56032;51.324;12.376;2023-03-01T02:09:59;0.00;99.90
15888;DHT22;56032;51.324;12.376;2023-03-01T02:12:37;0.00;99.90
15888;DHT22;56032;51.324;12.376;2023-03-01T02:15:28;0.00;99.90
15888;DHT22;56032;51.324;12.376;2023-03-01T02:18:16;0.00;99.90
15888;DHT22;56032;51.324;12.376;2023-03-01T02:20:54;-0.10;99.90
15888;DHT22;56032;51.324;12.376;2023-03-01T02:23:33;-0.10;99.90
15888;DHT22;56032;51.324;12.376;2023-03-01T02:26:27;-0.10;99.90
15888;DHT22;56032;51.324;12.376;2023-03-01T02:29:28;-0.10;99.90
15888;DHT22;56032;51.324;12.376;2023-03-01T02:31:59;-0.20;99.90
15888;DHT22;56032;51.324;12.376;2023-03-01T02:34:35;-0.20;99.90
15888;DHT22;56032;51.324;12.376;2023-03-01T02:37:30;-0.20;99.90
15888;DHT22;56032;51.324;12.376;2023-03-01T02:40:08;-0.20;99.90
15888;DHT22;56032;51.324;12.376;2023-03-01T02:49:18;-0.30;99.90
15888;DHT22;56032;51.324;12.376;2023-03-01T02:54:43;-0.30;99.90
15888;DHT22;56032;51.324;12.376;2023-03-01T02:57:34;-0.30;99.90
15888;DHT22;56032;51.324;12.376;2023-03-01T03:00:10;-0.30;99.90
15888;DHT22;56032;51.324;12.376;2023-03-01T03:02:49;-0.30;99.90
15888;DHT22;56032;51.324;12.376;2023-03-01T03:05:29;-0.30;99.90
15888;DHT22;56032;51.324;12.376;2023-03-01T03:08:07;-0.40;99.90
15888;DHT22;56032;51.324;12.376;2023-03-01T03:10:44;-0.40;99.90
15888;DHT22;56032;51.324;12.376;2023-03-01T03:13:21;-0.40;99.90
15888;DHT22;56032;51.324;12.376;2023-03-01T03:16:01;-0.50;99.90
15888;DHT22;56032;51.324;12.376;2023-03-01T03:18:38;-0.50;99.90
15888;DHT22;56032;51.324;12.376;2023-03-01T03:21:14;-0.50;99.90
15888;DHT22;56032;51.324;12.376;2023-03-01T03:23:54;-0.60;99.90
15888;DHT22;56032;51.324;12.376;2023-03-01T03:26:33;-0.60;99.90
15888;DHT22;56032;51.324;12.376;2023-03-01T03:29:15;-0.60;99.90
15888;DHT22;56032;51.324;12.376;2023-03-01T03:31:52;-0.60;99.90
15888;DHT22;56032;51.324;12.376;2023-03-01T03:34:27;-0.60;99.90
15888;DHT22;56032;51.324;12.376;2023-03-01T03:40:23;-0.60;99.90
15888;DHT22;56032;51.324;12.376;2023-03-01T03:43:05;-0.50;99.90
15888;DHT22;56032;51.324;12.376;2023-03-01T03:45:48;-0.50;99.90
15888;DHT22;56032;51.324;12.376;2023-03-01T03:48:39;-0.50;99.90
15888;DHT22;56032;51.324;12.376;2023-03-01T03:51:15;0.60;99.90
15888;DHT22;56032;51.324;12.376;2023-03-01T03:53:56;-0.50;99.90
15888;DHT22;56032;51.324;12.376;2023-03-01T03:56:39;-0.40;99.90
15888;DHT22;56032;51.324;12.376;2023-03-01T03:59:25;-0.50;99.90
15888;DHT22;56032;51.324;12.376;2023-03-01T04:01:57;-0.60;99.90
15888;DHT22;56032;51.324;12.376;2023-03-01T04:04:34;-0.50;99.90
15888;DHT22;56032;51.324;12.376;2023-03-01T04:07:19;-0.50;99.90
15888;DHT22;56032;51.324;12.376;2023-03-01T04:10:05;-0.50;99.90
15888;DHT22;56032;51.324;12.376;2023-03-01T04:12:51;-0.50;99.90
15888;DHT22;56032;51.324;12.376;2023-03-01T04:15:26;-0.60;99.90
15888;DHT22;56032;51.324;12.376;2023-03-01T04:18:17;-0.70;99.90
15888;DHT22;56032;51.324;12.376;2023-03-01T04:20:52;-1.50;99.90
15888;DHT22;56032;51.324;12.376;2023-03-01T04:23:40;-0.90;99.90
15888;DHT22;56032;51.324;12.376;2023-03-01T04:26:11;-0.90;99.90
15888;DHT22;56032;51.324;12.376;2023-03-01T04:29:06;-0.90;99.90
15888;DHT22;56032;51.324;12.376;2023-03-01T04:31:45;-0.90;99.90
15888;DHT22;56032;51.324;12.376;2023-03-01T04:34:20;-1.00;99.90
15888;DHT22;56032;51.324;12.376;2023-03-01T04:36:56;-0.90;99.90
15888;DHT22;56032;51.324;12.376;2023-03-01T04:39:30;-1.00;99.90
15888;DHT22;56032;51.324;12.376;2023-03-01T04:42:01;-0.90;99.90
15888;DHT22;56032;51.324;12.376;2023-03-01T04:44:46;-0.90;99.90
15888;DHT22;56032;51.324;12.376;2023-03-01T04:47:19;-0.80;99.90
15888;DHT22;56032;51.324;12.376;2023-03-01T04:52:52;-0.90;99.90
15888;DHT22;56032;51.324;12.376;2023-03-01T04:55:41;-0.90;99.90
15888;DHT22;56032;51.324;12.376;2023-03-01T04:58:26;-0.90;99.90
15888;DHT22;56032;51.324;12.376;2023-03-01T05:01:21;-1.00;99.90
15888;DHT22;56032;51.324;12.376;2023-03-01T05:03:55;-1.00;99.90
15888;DHT22;56032;51.324;12.376;2023-03-01T05:06:31;-1.00;99.90
15888;DHT22;56032;51.324;12.376;2023-03-01T05:09:13;-0.90;99.90
15888;DHT22;56032;51.324;12.376;2023-03-01T05:11:46;-1.00;99.90
15888;DHT22;56032;51.324;12.376;2023-03-01T05:14:31;-1.00;99.90
15888;DHT22;56032;51.324;12.376;2023-03-01T05:19:56;-1.20;99.90
15888;DHT22;56032;51.324;12.376;2023-03-01T05:22:41;-1.20;99.90
15888;DHT22;56032;51.324;12.376;2023-03-01T05:25:24;-1.20;99.90
15888;DHT22;56032;51.324;12.376;2023-03-01T05:28:10;-1.20;99.90
15888;DHT22;56032;51.324;12.376;2023-03-01T05:30:55;-1.20;99.90
15888;DHT22;56032;51.324;12.376;2023-03-01T05:34:00;-1.20;99.90
15888;DHT22;56032;51.324;12.376;2023-03-01T05:36:37;-1.30;99.90
15888;DHT22;56032;51.324;12.376;2023-03-01T05:39:22;-1.30;99.90
15888;DHT22;56032;51.324;12.376;2023-03-01T05:42:03;-1.30;99.90
15888;DHT22;56032;51.324;12.376;2023-03-01T05:44:38;-1.30;99.90
15888;DHT22;56032;51.324;12.376;2023-03-01T05:47:15;-1.30;99.90
15888;DHT22;56032;51.324;12.376;2023-03-01T05:49:50;-1.40;99.90
15888;DHT22;56032;51.324;12.376;2023-03-01T05:52:38;-1.40;99.90
15888;DHT22;56032;51.324;12.376;2023-03-01T05:55:13;-1.40;99.90
15888;DHT22;56032;51.324;12.376;2023-03-01T05:57:53;-1.40;99.90
15888;DHT22;56032;51.324;12.376;2023-03-01T06:00:27;-1.40;99.90
15888;DHT22;56032;51.324;12.376;2023-03-01T06:03:09;-1.40;99.90
15888;DHT22;56032;51.324;12.376;2023-03-01T06:05:55;-1.40;99.90
15888;DHT22;56032;51.324;12.376;2023-03-01T06:08:48;-1.40;99.90
15888;DHT22;56032;51.324;12.376;2023-03-01T06:11:24;-1.30;99.90
15888;DHT22;56032;51.324;12.376;2023-03-01T06:14:05;-1.30;99.90
15888;DHT22;56032;51.324;12.376;2023-03-01T06:16:37;-1.40;99.90
15888;DHT22;56032;51.324;12.376;2023-03-01T06:19:21;-1.40;99.90
15888;DHT22;56032;51.324;12.376;2023-03-01T06:22:06;-1.50;99.90
15888;DHT22;56032;51.324;12.376;2023-03-01T06:24:47;-1.50;99.90
15888;DHT22;56032;51.324;12.376;2023-03-01T06:27:47;-1.50;99.90
15888;DHT22;56032;51.324;12.376;2023-03-01T06:30:24;-1.40;99.90
15888;DHT22;56032;51.324;12.376;2023-03-01T06:32:56;-1.40;99.90
15888;DHT22;56032;51.324;12.376;2023-03-01T06:35:30;-1.40;99.90
15888;DHT22;56032;51.324;12.376;2023-03-01T06:38:07;-1.30;99.90
15888;DHT22;56032;51.324;12.376;2023-03-01T06:40:57;-1.30;99.90
15888;DHT22;56032;51.324;12.376;2023-03-01T06:43:41;-1.20;99.90
15888;DHT22;56032;51.324;12.376;2023-03-01T06:46:21;-1.20;99.90
15888;DHT22;56032;51.324;12.376;2023-03-01T06:49:05;-1.20;99.90
15888;DHT22;56032;51.324;12.376;2023-03-01T06:51:40;-1.10;99.90
15888;DHT22;56032;51.324;12.376;2023-03-01T06:54:44;-1.10;99.90
15888;DHT22;56032;51.324;12.376;2023-03-01T07:03:41;-0.90;99.90
15888;DHT22;56032;51.324;12.376;2023-03-01T07:06:32;-0.80;99.90
15888;DHT22;56032;51.324;12.376;2023-03-01T07:09:11;-0.70;99.90
15888;DHT22;56032;51.324;12.376;2023-03-01T07:11:49;-0.70;99.90
15888;DHT22;56032;51.324;12.376;2023-03-01T07:14:29;-0.60;99.90
15888;DHT22;56032;51.324;12.376;2023-03-01T07:17:09;-0.60;99.90
15888;DHT22;56032;51.324;12.376;2023-03-01T07:25:29;-0.40;99.90
15888;DHT22;56032;51.324;12.376;2023-03-01T07:28:10;-0.30;99.90
15888;DHT22;56032;51.324;12.376;2023-03-01T07:30:52;-0.30;99.90
15888;DHT22;56032;51.324;12.376;2023-03-01T07:33:33;-0.20;99.90
15888;DHT22;56032;51.324;12.376;2023-03-01T07:36:04;-0.10;99.90
15888;DHT22;56032;51.324;12.376;2023-03-01T07:38:35;0.00;99.90
15888;DHT22;56032;51.324;12.376;2023-03-01T07:41:18;0.20;99.90
15888;DHT22;56032;51.324;12.376;2023-03-01T07:47:14;0.40;99.90
15888;DHT22;56032;51.324;12.376;2023-03-01T07:49:47;0.60;99.90
15888;DHT22;56032;51.324;12.376;2023-03-01T07:52:23;0.70;99.90
15888;DHT22;56032;51.324;12.376;2023-03-01T07:55:10;0.70;99.90
15888;DHT22;56032;51.324;12.376;2023-03-01T07:57:51;0.90;99.90
15888;DHT22;56032;51.324;12.376;2023-03-01T08:00:24;0.90;99.90
15888;DHT22;56032;51.324;12.376;2023-03-01T08:03:05;1.00;99.90
15888;DHT22;56032;51.324;12.376;2023-03-01T08:06:00;1.00;99.90
15888;DHT22;56032;51.324;12.376;2023-03-01T08:08:33;1.10;99.90
15888;DHT22;56032;51.324;12.376;2023-03-01T08:11:26;1.10;99.90
15888;DHT22;56032;51.324;12.376;2023-03-01T08:14:09;1.20;99.90
15888;DHT22;56032;51.324;12.376;2023-03-01T08:17:08;1.30;99.90
15888;DHT22;56032;51.324;12.376;2023-03-01T08:19:43;1.40;99.90
15888;DHT22;56032;51.324;12.376;2023-03-01T08:22:33;1.60;99.90
15888;DHT22;56032;51.324;12.376;2023-03-01T08:25:05;1.60;99.90
15888;DHT22;56032;51.324;12.376;2023-03-01T08:27:51;1.60;99.90
15888;DHT22;56032;51.324;12.376;2023-03-01T08:33:32;1.50;99.90
15888;DHT22;56032;51.324;12.376;2023-03-01T08:36:03;1.60;99.90
15888;DHT22;56032;51.324;12.376;2023-03-01T08:38:39;1.80;99.90
15888;DHT22;56032;51.324;12.376;2023-03-01T08:41:23;2.10;99.90
15888;DHT22;56032;51.324;12.376;2023-03-01T08:44:07;2.30;99.90
15888;DHT22;56032;51.324;12.376;2023-03-01T08:46:47;2.40;99.90
15888;DHT22;56032;51.324;12.376;2023-03-01T08:49:29;2.40;99.90
15888;DHT22;56032;51.324;12.376;2023-03-01T08:52:22;2.40;99.90
15888;DHT22;56032;51.324;12.376;2023-03-01T08:54:53;2.50;99.90
15888;DHT22;56032;51.324;12.376;2023-03-01T08:57:33;2.50;99.90
15888;DHT22;56032;51.324;12.376;2023-03-01T09:00:31;2.50;99.90
15888;DHT22;56032;51.324;12.376;2023-03-01T09:03:23;2.60;99.90
15888;DHT22;56032;51.324;12.376;2023-03-01T09:08:51;2.80;99.90
15888;DHT22;56032;51.324;12.376;2023-03-01T09:11:23;2.80;99.90
15888;DHT22;56032;51.324;12.376;2023-03-01T09:14:04;2.90;99.90
15888;DHT22;56032;51.324;12.376;2023-03-01T09:16:43;3.00;99.90
15888;DHT22;56032;51.324;12.376;2023-03-01T09:19:31;3.10;99.90
15888;DHT22;56032;51.324;12.376;2023-03-01T09:22:19;3.20;99.90
15888;DHT22;56032;51.324;12.376;2023-03-01T09:25:03;3.10;99.90
15888;DHT22;56032;51.324;12.376;2023-03-01T09:27:34;3.10;99.90
15888;DHT22;56032;51.324;12.376;2023-03-01T09:30:13;3.00;99.90
15888;DHT22;56032;51.324;12.376;2023-03-01T09:32:59;3.10;99.90
15888;DHT22;56032;51.324;12.376;2023-03-01T09:35:58;3.20;99.90
15888;DHT22;56032;51.324;12.376;2023-03-01T09:38:30;3.30;99.90
15888;DHT22;56032;51.324;12.376;2023-03-01T09:41:09;3.40;99.90
15888;DHT22;56032;51.324;12.376;2023-03-01T09:43:55;3.50;99.90
15888;DHT22;56032;51.324;12.376;2023-03-01T09:46:27;3.40;99.90
15888;DHT22;56032;51.324;12.376;2023-03-01T09:49:04;3.50;99.90
15888;DHT22;56032;51.324;12.376;2023-03-01T09:51:36;3.60;99.90
15888;DHT22;56032;51.324;12.376;2023-03-01T09:54:12;3.60;99.90
15888;DHT22;56032;51.324;12.376;2023-03-01T09:56:53;3.70;99.90
15888;DHT22;56032;51.324;12.376;2023-03-01T09:59:33;3.70;99.90
15888;DHT22;56032;51.324;12.376;2023-03-01T10:02:24;3.90;99.90
15888;DHT22;56032;51.324;12.376;2023-03-01T10:05:31;3.90;99.90
15888;DHT22;56032;51.324;12.376;2023-03-01T10:08:18;3.90;99.90
15888;DHT22;56032;51.324;12.376;2023-03-01T10:10:54;4.10;99.90
15888;DHT22;56032;51.324;12.376;2023-03-01T10:13:43;4.20;99.90
15888;DHT22;56032;51.324;12.376;2023-03-01T10:16:36;4.40;99.90
15888;DHT22;56032;51.324;12.376;2023-03-01T10:19:24;4.50;99.90
15888;DHT22;56032;51.324;12.376;2023-03-01T10:22:05;4.50;99.90
15888;DHT22;56032;51.324;12.376;2023-03-01T10:24:48;4.60;99.90
15888;DHT22;56032;51.324;12.376;2023-03-01T10:27:34;4.60;99.90
15888;DHT22;56032;51.324;12.376;2023-03-01T10:30:30;4.40;99.90
15888;DHT22;56032;51.324;12.376;2023-03-01T10:33:13;4.30;99.90
15888;DHT22;56032;51.324;12.376;2023-03-01T10:35:54;4.40;99.90
15888;DHT22;56032;51.324;12.376;2023-03-01T10:41:34;4.70;99.90
15888;DHT22;56032;51.324;12.376;2023-03-01T10:44:34;4.90;99.90
15888;DHT22;56032;51.324;12.376;2023-03-01T10:47:20;5.00;99.90
15888;DHT22;56032;51.324;12.376;2023-03-01T10:49:55;5.20;99.90
15888;DHT22;56032;51.324;12.376;2023-03-01T10:52:40;5.10;99.90
15888;DHT22;56032;51.324;12.376;2023-03-01T10:55:23;5.20;99.90
15888;DHT22;56032;51.324;12.376;2023-03-01T11:00:55;5.20;99.90
15888;DHT22;56032;51.324;12.376;2023-03-01T11:04:03;5.40;99.90
15888;DHT22;56032;51.324;12.376;2023-03-01T11:06:43;5.10;99.90
15888;DHT22;56032;51.324;12.376;2023-03-01T11:09:18;5.00;99.90
15888;DHT22;56032;51.324;12.376;2023-03-01T11:12:12;5.10;99.90
15888;DHT22;56032;51.324;12.376;2023-03-01T11:15:04;5.20;99.90
15888;DHT22;56032;51.324;12.376;2023-03-01T11:17:55;5.20;99.90
15888;DHT22;56032;51.324;12.376;2023-03-01T11:21:04;5.20;99.90
15888;DHT22;56032;51.324;12.376;2023-03-01T11:23:54;5.30;99.90
15888;DHT22;56032;51.324;12.376;2023-03-01T11:26:28;5.30;99.90
15888;DHT22;56032;51.324;12.376;2023-03-01T11:29:23;5.60;99.90
15888;DHT22;56032;51.324;12.376;2023-03-01T11:32:18;5.50;99.90
15888;DHT22;56032;51.324;12.376;2023-03-01T11:35:16;5.20;99.90
15888;DHT22;56032;51.324;12.376;2023-03-01T11:41:12;5.10;99.90
15888;DHT22;56032;51.324;12.376;2023-03-01T11:43:55;5.20;99.90
15888;DHT22;56032;51.324;12.376;2023-03-01T11:46:33;5.40;99.90
15888;DHT22;56032;51.324;12.376;2023-03-01T11:49:24;5.50;99.90
15888;DHT22;56032;51.324;12.376;2023-03-01T11:52:04;5.40;99.90
15888;DHT22;56032;51.324;12.376;2023-03-01T11:55:07;5.20;99.90
15888;DHT22;56032;51.324;12.376;2023-03-01T12:03:50;5.50;99.90
15888;DHT22;56032;51.324;12.376;2023-03-01T12:06:48;5.60;99.90
15888;DHT22;56032;51.324;12.376;2023-03-01T12:09:38;5.70;99.90
15888;DHT22;56032;51.324;12.376;2023-03-01T12:12:36;5.70;99.90
15888;DHT22;56032;51.324;12.376;2023-03-01T12:15:32;5.90;99.90
15888;DHT22;56032;51.324;12.376;2023-03-01T12:18:34;5.90;99.90
15888;DHT22;56032;51.324;12.376;2023-03-01T12:21:21;5.70;99.90
15888;DHT22;56032;51.324;12.376;2023-03-01T12:24:21;5.50;99.90
15888;DHT22;56032;51.324;12.376;2023-03-01T12:27:21;5.50;99.90
15888;DHT22;56032;51.324;12.376;2023-03-01T12:30:17;5.50;99.90
15888;DHT22;56032;51.324;12.376;2023-03-01T12:33:04;5.50;99.90
15888;DHT22;56032;51.324;12.376;2023-03-01T12:35:58;5.50;99.90
15888;DHT22;56032;51.324;12.376;2023-03-01T12:48:13;5.50;97.60
15888;DHT22;56032;51.324;12.376;2023-03-01T12:51:04;5.60;97.70
15888;DHT22;56032;51.324;12.376;2023-03-01T12:54:14;5.60;97.30
15888;DHT22;56032;51.324;12.376;2023-03-01T12:57:34;5.70;97.50
15888;DHT22;56032;51.324;12.376;2023-03-01T13:00:38;5.90;97.70
15888;DHT22;56032;51.324;12.376;2023-03-01T13:06:07;6.00;97.20
15888;DHT22;56032;51.324;12.376;2023-03-01T13:08:46;6.10;97.40
15888;DHT22;56032;51.324;12.376;2023-03-01T13:11:30;6.30;97.50
15888;DHT22;56032;51.324;12.376;2023-03-01T13:17:01;6.30;96.90
15888;DHT22;56032;51.324;12.376;2023-03-01T13:19:35;6.30;96.60
15888;DHT22;56032;51.324;12.376;2023-03-01T13:37:20;6.10;95.80
15888;DHT22;56032;51.324;12.376;2023-03-01T13:39:59;6.10;95.40
15888;DHT22;56032;51.324;12.376;2023-03-01T13:42:39;6.20;95.30
15888;DHT22;56032;51.324;12.376;2023-03-01T13:45:36;6.20;95.20
15888;DHT22;56032;51.324;12.376;2023-03-01T13:48:15;6.20;95.10
15888;DHT22;56032;51.324;12.376;2023-03-01T13:51:09;6.30;94.60
15888;DHT22;56032;51.324;12.376;2023-03-01T13:53:46;6.30;94.90
15888;DHT22;56032;51.324;12.376;2023-03-01T13:56:45;6.30;94.30
15888;DHT22;56032;51.324;12.376;2023-03-01T13:59:21;6.40;93.90
15888;DHT22;56032;51.324;12.376;2023-03-01T14:01:58;6.30;92.90
15888;DHT22;56032;51.324;12.376;2023-03-01T14:04:33;6.40;93.00
15888;DHT22;56032;51.324;12.376;2023-03-01T14:07:11;6.50;92.40
15888;DHT22;56032;51.324;12.376;2023-03-01T14:10:07;6.60;92.60
15888;DHT22;56032;51.324;12.376;2023-03-01T14:13:01;6.50;92.30
15888;DHT22;56032;51.324;12.376;2023-03-01T14:15:43;6.60;91.60
15888;DHT22;56032;51.324;12.376;2023-03-01T14:18:40;6.50;91.60
15888;DHT22;56032;51.324;12.376;2023-03-01T14:21:15;6.50;91.70
15888;DHT22;56032;51.324;12.376;2023-03-01T14:23:59;6.60;91.50
15888;DHT22;56032;51.324;12.376;2023-03-01T14:26:41;6.30;90.70
15888;DHT22;56032;51.324;12.376;2023-03-01T14:29:25;6.50;90.30
15888;DHT22;56032;51.324;12.376;2023-03-01T14:32:24;6.50;90.20
15888;DHT22;56032;51.324;12.376;2023-03-01T14:35:19;6.50;89.40
15888;DHT22;56032;51.324;12.376;2023-03-01T14:37:59;6.60;88.60
15888;DHT22;56032;51.324;12.376;2023-03-01T14:40:46;6.60;86.20
15888;DHT22;56032;51.324;12.376;2023-03-01T14:43:25;6.50;83.80
15888;DHT22;56032;51.324;12.376;2023-03-01T14:45:56;6.50;83.90
15888;DHT22;56032;51.324;12.376;2023-03-01T14:48:43;6.50;83.30
15888;DHT22;56032;51.324;12.376;2023-03-01T14:51:15;6.50;83.10
15888;DHT22;56032;51.324;12.376;2023-03-01T14:53:53;6.50;82.50
15888;DHT22;56032;51.324;12.376;2023-03-01T14:56:45;6.50;81.80
15888;DHT22;56032;51.324;12.376;2023-03-01T14:59:32;6.50;81.90
15888;DHT22;56032;51.324;12.376;2023-03-01T15:02:21;6.60;82.30
15888;DHT22;56032;51.324;12.376;2023-03-01T15:05:13;6.60;82.00
15888;DHT22;56032;51.324;12.376;2023-03-01T15:07:57;6.50;81.80
15888;DHT22;56032;51.324;12.376;2023-03-01T15:10:32;6.50;81.00
15888;DHT22;56032;51.324;12.376;2023-03-01T15:13:12;6.50;81.10
15888;DHT22;56032;51.324;12.376;2023-03-01T15:16:12;6.50;81.90
15888;DHT22;56032;51.324;12.376;2023-03-01T15:18:46;6.60;81.40
15888;DHT22;56032;51.324;12.376;2023-03-01T15:21:46;6.60;80.80
15888;DHT22;56032;51.324;12.376;2023-03-01T15:24:46;6.50;80.00
15888;DHT22;56032;51.324;12.376;2023-03-01T15:27:30;6.50;80.80
15888;DHT22;56032;51.324;12.376;2023-03-01T15:30:13;6.40;81.20
15888;DHT22;56032;51.324;12.376;2023-03-01T15:32:59;6.40;81.10
15888;DHT22;56032;51.324;12.376;2023-03-01T15:36:02;6.40;80.60
15888;DHT22;56032;51.324;12.376;2023-03-01T15:38:36;6.40;80.00
15888;DHT22;56032;51.324;12.376;2023-03-01T15:41:25;6.30;79.60
15888;DHT22;56032;51.324;12.376;2023-03-01T15:44:25;6.30;79.80
15888;DHT22;56032;51.324;12.376;2023-03-01T15:50:19;6.30;80.60
15888;DHT22;56032;51.324;12.376;2023-03-01T15:52:55;6.30;81.10
15888;DHT22;56032;51.324;12.376;2023-03-01T15:55:48;6.20;80.50
15888;DHT22;56032;51.324;12.376;2023-03-01T15:58:41;6.20;79.90
15888;DHT22;56032;51.324;12.376;2023-03-01T16:01:18;6.20;80.20
15888;DHT22;56032;51.324;12.376;2023-03-01T16:07:08;6.10;80.50
15888;DHT22;56032;51.324;12.376;2023-03-01T16:09:54;6.00;80.90
15888;DHT22;56032;51.324;12.376;2023-03-01T16:12:47;6.00;81.50
15888;DHT22;56032;51.324;12.376;2023-03-01T16:15:25;5.90;81.80
15888;DHT22;56032;51.324;12.376;2023-03-01T16:18:01;5.90;82.20
15888;DHT22;56032;51.324;12.376;2023-03-01T16:20:44;5.90;82.30
15888;DHT22;56032;51.324;12.376;2023-03-01T16:23:35;5.80;82.60
15888;DHT22;56032;51.324;12.376;2023-03-01T16:26:23;5.80;82.60
15888;DHT22;56032;51.324;12.376;2023-03-01T16:29:07;5.80;83.30
15888;DHT22;56032;51.324;12.376;2023-03-01T16:31:51;5.70;83.10
15888;DHT22;56032;51.324;12.376;2023-03-01T16:34:42;5.70;83.40
15888;DHT22;56032;51.324;12.376;2023-03-01T16:37:40;5.60;83.90
15888;DHT22;56032;51.324;12.376;2023-03-01T16:40:27;5.60;83.80
15888;DHT22;56032;51.324;12.376;2023-03-01T16:43:14;5.60;84.00
15888;DHT22;56032;51.324;12.376;2023-03-01T16:46:08;5.50;84.30
15888;DHT22;56032;51.324;12.376;2023-03-01T16:48:51;5.50;84.60
15888;DHT22;56032;51.324;12.376;2023-03-01T16:51:23;5.40;85.00
15888;DHT22;56032;51.324;12.376;2023-03-01T16:54:12;5.40;85.30
15888;DHT22;56032;51.324;12.376;2023-03-01T16:56:59;5.30;85.90
15888;DHT22;56032;51.324;12.376;2023-03-01T16:59:39;5.30;86.50
15888;DHT22;56032;51.324;12.376;2023-03-01T17:02:25;5.20;86.80
15888;DHT22;56032;51.324;12.376;2023-03-01T17:05:13;5.20;87.10
15888;DHT22;56032;51.324;12.376;2023-03-01T17:07:45;5.20;87.20
15888;DHT22;56032;51.324;12.376;2023-03-01T17:10:35;5.10;87.50
15888;DHT22;56032;51.324;12.376;2023-03-01T17:13:25;5.10;88.10
15888;DHT22;56032;51.324;12.376;2023-03-01T17:16:06;5.00;88.40
15888;DHT22;56032;51.324;12.376;2023-03-01T17:18:43;5.00;88.60
15888;DHT22;56032;51.324;12.376;2023-03-01T17:21:16;4.90;89.20
15888;DHT22;56032;51.324;12.376;2023-03-01T17:23:53;4.90;89.20
15888;DHT22;56032;51.324;12.376;2023-03-01T17:26:26;4.80;89.70
15888;DHT22;56032;51.324;12.376;2023-03-01T17:29:09;4.80;90.00
15888;DHT22;56032;51.324;12.376;2023-03-01T17:32:03;4.80;90.20
15888;DHT22;56032;51.324;12.376;2023-03-01T17:34:45;4.70;90.40
15888;DHT22;56032;51.324;12.376;2023-03-01T17:37:21;4.60;90.60
15888;DHT22;56032;51.324;12.376;2023-03-01T17:40:19;4.60;90.90
15888;DHT22;56032;51.324;12.376;2023-03-01T17:42:51;4.60;91.00
15888;DHT22;56032;51.324;12.376;2023-03-01T17:48:41;4.50;91.30
15888;DHT22;56032;51.324;12.376;2023-03-01T17:51:13;4.50;91.50
15888;DHT22;56032;51.324;12.376;2023-03-01T17:53:47;4.50;91.70
15888;DHT22;56032;51.324;12.376;2023-03-01T17:56:23;4.40;92.00
15888;DHT22;56032;51.324;12.376;2023-03-01T17:59:08;4.40;92.00
15888;DHT22;56032;51.324;12.376;2023-03-01T18:01:52;4.40;91.90
15888;DHT22;56032;51.324;12.376;2023-03-01T18:04:56;4.40;92.10
15888;DHT22;56032;51.324;12.376;2023-03-01T18:07:29;4.20;92.40
15888;DHT22;56032;51.324;12.376;2023-03-01T18:10:02;4.20;92.40
15888;DHT22;56032;51.324;12.376;2023-03-01T18:12:50;4.20;92.70
15888;DHT22;56032;51.324;12.376;2023-03-01T18:15:25;4.20;92.20
15888;DHT22;56032;51.324;12.376;2023-03-01T18:17:59;4.20;92.20
15888;DHT22;56032;51.324;12.376;2023-03-01T18:20:47;4.10;92.50
15888;DHT22;56032;51.324;12.376;2023-03-01T18:23:29;4.10;92.50
15888;DHT22;56032;51.324;12.376;2023-03-01T18:26:06;4.10;92.40
15888;DHT22;56032;51.324;12.376;2023-03-01T18:28:48;4.10;92.30
15888;DHT22;56032;51.324;12.376;2023-03-01T18:31:23;4.10;92.30
15888;DHT22;56032;51.324;12.376;2023-03-01T18:33:57;4.10;92.50
15888;DHT22;56032;51.324;12.376;2023-03-01T18:36:42;4.00;92.50
15888;DHT22;56032;51.324;12.376;2023-03-01T18:39:35;4.00;92.80
15888;DHT22;56032;51.324;12.376;2023-03-01T18:42:06;4.00;93.00
15888;DHT22;56032;51.324;12.376;2023-03-01T18:44:50;3.90;92.90
15888;DHT22;56032;51.324;12.376;2023-03-01T18:48:00;3.90;93.20
15888;DHT22;56032;51.324;12.376;2023-03-01T18:50:42;3.80;93.60
15888;DHT22;56032;51.324;12.376;2023-03-01T18:53:26;3.70;93.90
15888;DHT22;56032;51.324;12.376;2023-03-01T18:56:21;3.70;93.80